Time;durP1;ratioP1;P1;durP2;ratioP2;P2;SDS_P1;SDS_P2;PMS_P1;PMS_P2;Temp;Humidity;BMP_temperature;BMP_pressure;BME280_temperature;BME280_humidity;BME280_pressure;Samples;Min_cycle;Max_cycle;Signal;HPM_P1;HPM_P2
2024/01/12 00:01:06;;;;;;;38.72;11.90;;;;;;;;;;5084583;28;20373;-61
2024/01/12 00:03:35;;;;;;;39.00;10.40;;;;;;;;;;5084277;28;20182;-61
2024/01/12 00:06:02;;;;;;;31.17;10.20;;;;;;;;;;5084314;28;20021;-64
2024/01/12 00:08:28;;;;;;;27.00;10.85;;;;;;;;;;5084345;28;20024;-59
2024/01/12 00:10:55;;;;;;;30.52;10.38;;;;;;;;;;5084276;28;20013;-59
2024/01/12 00:13:22;;;;;;;27.65;10.25;;;;;;;;;;5084124;28;20024;-60
2024/01/12 00:15:49;;;;;;;28.20;9.57;;;;;;;;;;5084085;28;20039;-60
2024/01/12 00:18:15;;;;;;;24.63;9.38;;;;;;;;;;5084139;28;20017;-62
2024/01/12 00:20:44;;;;;;;18.73;9.32;;;;;;;;;;5084111;28;20374;-60
2024/01/12 00:23:11;;;;;;;16.98;8.98;;;;;;;;;;5083910;28;20126;-61
2024/01/12 00:25:37;;;;;;;23.67;9.00;;;;;;;;;;5084773;28;20032;-61
2024/01/12 00:28:04;;;;;;;19.95;8.55;;;;;;;;;;5084098;28;20016;-60
2024/01/12 00:30:31;;;;;;;45.13;9.32;;;;;;;;;;5083939;28;20024;-61
2024/01/12 00:32:57;;;;;;;29.20;10.38;;;;;;;;;;5083363;28;20224;-61
2024/01/12 00:35:24;;;;;;;43.67;9.98;;;;;;;;;;5084281;28;20032;-61
2024/01/12 00:37:51;;;;;;;23.58;9.80;;;;;;;;;;5083496;28;20048;-61
2024/01/12 00:40:17;;;;;;;23.05;9.43;;;;;;;;;;5084372;28;20048;-61
2024/01/12 00:42:44;;;;;;;38.67;9.88;;;;;;;;;;5084607;28;20078;-62
2024/01/12 00:45:11;;;;;;;28.15;9.20;;;;;;;;;;5083214;28;20070;-61
2024/01/12 00:47:38;;;;;;;31.48;8.98;;;;;;;;;;5083708;28;20058;-62
2024/01/12 00:50:04;;;;;;;23.23;8.65;;;;;;;;;;5084134;28;20028;-62
2024/01/12 00:52:31;;;;;;;21.90;9.82;;;;;;;;;;5083631;28;20072;-62
2024/01/12 00:54:59;;;;;;;20.50;8.57;;;;;;;;;;5084102;28;20032;-61
2024/01/12 00:57:26;;;;;;;27.65;8.98;;;;;;;;;;5083506;28;20204;-62
2024/01/12 00:59:52;;;;;;;19.38;8.98;;;;;;;;;;5083735;28;20025;-60
2024/01/12 01:02:20;;;;;;;25.65;8.80;;;;;;;;;;5083691;28;20028;-60
2024/01/12 01:04:46;;;;;;;23.73;9.00;;;;;;;;;;5084831;28;20036;-59
2024/01/12 01:07:13;;;;;;;103.90;13.50;;;;;;;;;;5083495;28;20020;-61
2024/01/12 01:09:40;;;;;;;39.80;9.75;;;;;;;;;;5080783;28;20194;-59
2024/01/12 01:12:06;;;;;;;21.45;8.82;;;;;;;;;;5086756;28;20028;-60
2024/01/12 01:14:33;;;;;;;25.25;8.93;;;;;;;;;;5079040;28;20016;-59
2024/01/12 01:16:59;;;;;;;27.30;9.45;;;;;;;;;;5082284;28;20024;-58
2024/01/12 01:19:26;;;;;;;18.23;8.55;;;;;;;;;;5084047;28;20062;-61
2024/01/12 01:21:53;;;;;;;17.55;9.18;;;;;;;;;;5080187;28;20092;-56
2024/01/12 01:24:19;;;;;;;23.58;9.52;;;;;;;;;;5078462;28;20020;-61
2024/01/12 01:26:46;;;;;;;42.28;10.18;;;;;;;;;;5079667;28;20025;-62
2024/01/12 01:29:13;;;;;;;21.63;9.38;;;;;;;;;;5081562;28;20024;-62
2024/01/12 01:31:39;;;;;;;19.83;9.13;;;;;;;;;;5080195;28;20203;-61
2024/01/12 01:34:06;;;;;;;17.17;8.52;;;;;;;;;;5080869;28;20081;-60
2024/01/12 01:36:33;;;;;;;25.60;9.48;;;;;;;;;;5080138;28;20027;-61
2024/01/12 01:39:00;;;;;;;21.77;8.63;;;;;;;;;;5074977;28;20396;-62
2024/01/12 01:41:27;;;;;;;19.10;8.75;;;;;;;;;;5080032;28;20216;-60
2024/01/12 01:43:53;;;;;;;15.15;9.35;;;;;;;;;;5085662;28;20050;-62
2024/01/12 01:46:20;;;;;;;14.73;8.82;;;;;;;;;;5086491;28;20070;-58
2024/01/12 01:48:47;;;;;;;128.68;17.58;;;;;;;;;;5083500;28;20055;-59
2024/01/12 01:51:13;;;;;;;27.10;10.02;;;;;;;;;;5086342;28;20325;-59
2024/01/12 01:53:40;;;;;;;23.15;9.45;;;;;;;;;;5086372;28;20028;-59
2024/01/12 01:56:07;;;;;;;16.25;9.38;;;;;;;;;;5082819;28;20305;-60
2024/01/12 01:58:34;;;;;;;16.52;8.73;;;;;;;;;;5078239;28;20317;-63
2024/01/12 02:01:01;;;;;;;13.25;8.90;;;;;;;;;;5078120;28;20017;-63
2024/01/12 02:03:28;;;;;;;25.77;10.48;;;;;;;;;;5078139;28;20021;-61
2024/01/12 02:05:56;;;;;;;24.30;9.65;;;;;;;;;;5078304;28;20020;-61
2024/01/12 02:08:24;;;;;;;16.67;9.30;;;;;;;;;;5076976;28;20028;-61
2024/01/12 02:10:52;;;;;;;21.05;8.57;;;;;;;;;;5078097;28;20190;-57
2024/01/12 02:13:19;;;;;;;18.58;9.18;;;;;;;;;;5076762;28;20020;-57
2024/01/12 02:15:46;;;;;;;17.63;8.80;;;;;;;;;;5081131;28;20065;-58
2024/01/12 02:18:12;;;;;;;28.50;9.70;;;;;;;;;;5088353;28;20013;-62
2024/01/12 02:20:39;;;;;;;16.58;9.15;;;;;;;;;;5082848;28;20315;-62
2024/01/12 02:23:06;;;;;;;18.52;9.35;;;;;;;;;;5088680;28;20020;-57
2024/01/12 02:25:35;;;;;;;12.43;9.18;;;;;;;;;;5079487;28;20023;-56
2024/01/12 02:28:02;;;;;;;37.22;10.13;;;;;;;;;;5090860;28;20012;-58
2024/01/12 02:30:32;;;;;;;15.43;9.38;;;;;;;;;;5087325;28;20025;-63
2024/01/12 02:33:04;;;;;;;13.38;8.43;;;;;;;;;;5084653;28;20193;-60
2024/01/12 02:35:31;;;;;;;14.85;9.32;;;;;;;;;;5084314;28;20190;-62
2024/01/12 02:37:57;;;;;;;14.15;9.05;;;;;;;;;;5083902;28;20245;-62
2024/01/12 02:40:24;;;;;;;14.50;9.38;;;;;;;;;;5083711;28;20030;-57
2024/01/12 02:42:51;;;;;;;15.18;9.00;;;;;;;;;;5086583;28;20019;-64
2024/01/12 02:45:19;;;;;;;11.10;8.80;;;;;;;;;;5085060;28;20029;-62
2024/01/12 02:47:45;;;;;;;10.60;8.52;;;;;;;;;;5085487;28;20204;-60
2024/01/12 02:50:12;;;;;;;13.68;9.50;;;;;;;;;;5085715;28;20024;-69
2024/01/12 02:52:39;;;;;;;19.25;8.77;;;;;;;;;;5085550;28;20015;-64
2024/01/12 02:55:06;;;;;;;17.45;9.52;;;;;;;;;;5085520;28;20035;-67
2024/01/12 02:57:33;;;;;;;14.05;8.98;;;;;;;;;;5085350;28;20019;-66
2024/01/12 02:59:59;;;;;;;11.05;9.13;;;;;;;;;;5079540;28;20025;-64
2024/01/12 03:02:29;;;;;;;13.15;8.77;;;;;;;;;;5087171;28;20017;-60
2024/01/12 03:04:56;;;;;;;12.02;8.80;;;;;;;;;;5084610;28;20050;-60
2024/01/12 03:07:22;;;;;;;11.60;9.00;;;;;;;;;;5083084;28;20020;-62
2024/01/12 03:09:49;;;;;;;10.43;8.60;;;;;;;;;;5080872;28;20031;-61
2024/01/12 03:12:15;;;;;;;17.55;9.70;;;;;;;;;;5085020;28;20077;-57
2024/01/12 03:14:42;;;;;;;9.52;8.30;;;;;;;;;;5084487;28;20047;-62
2024/01/12 03:17:10;;;;;;;15.18;8.73;;;;;;;;;;5082828;28;20188;-62
2024/01/12 03:19:36;;;;;;;12.68;8.68;;;;;;;;;;5083579;28;20274;-62
2024/01/12 03:22:03;;;;;;;10.18;7.95;;;;;;;;;;5083975;28;20051;-62
2024/01/12 03:24:30;;;;;;;12.52;9.07;;;;;;;;;;5084807;28;20040;-61
2024/01/12 03:26:56;;;;;;;9.77;8.30;;;;;;;;;;5090670;28;20088;-62
2024/01/12 03:29:25;;;;;;;10.65;8.85;;;;;;;;;;5089322;28;20020;-62
2024/01/12 03:31:52;;;;;;;12.25;8.02;;;;;;;;;;5102570;28;20189;-63
2024/01/12 03:34:19;;;;;;;15.05;8.27;;;;;;;;;;5083700;28;20039;-62
2024/01/12 03:36:45;;;;;;;11.63;8.30;;;;;;;;;;5084945;28;20024;-61
2024/01/12 03:39:12;;;;;;;10.45;8.10;;;;;;;;;;5088084;28;20335;-64
2024/01/12 03:41:38;;;;;;;12.63;8.10;;;;;;;;;;5084792;28;20224;-62
2024/01/12 03:44:05;;;;;;;11.18;8.57;;;;;;;;;;5084252;28;20024;-63
2024/01/12 03:46:31;;;;;;;12.40;8.75;;;;;;;;;;5084927;28;20055;-61
2024/01/12 03:48:58;;;;;;;9.95;8.43;;;;;;;;;;5084535;28;20023;-62
2024/01/12 03:51:25;;;;;;;10.80;8.57;;;;;;;;;;5084578;28;20324;-62
2024/01/12 03:53:51;;;;;;;11.13;8.60;;;;;;;;;;5083421;28;20024;-62
2024/01/12 03:56:18;;;;;;;11.32;8.98;;;;;;;;;;5084126;28;20092;-61
2024/01/12 03:58:44;;;;;;;11.98;8.80;;;;;;;;;;5082915;28;20052;-60
2024/01/12 04:01:11;;;;;;;11.38;8.05;;;;;;;;;;5083381;28;20099;-62
2024/01/12 04:03:38;;;;;;;11.40;8.60;;;;;;;;;;5083709;28;20028;-61
2024/01/12 04:06:08;;;;;;;8.93;8.07;;;;;;;;;;5084157;28;20048;-62
2024/01/12 04:08:34;;;;;;;15.20;8.73;;;;;;;;;;5084491;28;20017;-62
2024/01/12 04:11:01;;;;;;;14.27;8.70;;;;;;;;;;5084366;28;20048;-62
2024/01/12 04:13:28;;;;;;;11.75;8.02;;;;;;;;;;5082305;28;20048;-62
2024/01/12 04:15:54;;;;;;;14.48;9.05;;;;;;;;;;5084491;28;20028;-63
2024/01/12 04:18:21;;;;;;;11.15;8.40;;;;;;;;;;5086686;28;20020;-60
2024/01/12 04:20:47;;;;;;;12.15;8.18;;;;;;;;;;5092274;28;20292;-62
2024/01/12 04:23:14;;;;;;;10.45;8.45;;;;;;;;;;5086736;28;20088;-62
2024/01/12 04:25:40;;;;;;;9.23;8.13;;;;;;;;;;5103054;28;20254;-62
2024/01/12 04:28:07;;;;;;;9.30;7.88;;;;;;;;;;5104136;28;20016;-64
2024/01/12 04:30:34;;;;;;;15.13;8.57;;;;;;;;;;5096694;28;20028;-62
2024/01/12 04:33:00;;;;;;;9.80;8.63;;;;;;;;;;5082187;28;20017;-62
2024/01/12 04:35:27;;;;;;;9.52;8.63;;;;;;;;;;5083946;28;20012;-62
2024/01/12 04:37:53;;;;;;;11.90;8.65;;;;;;;;;;5083643;28;20098;-61
2024/01/12 04:40:20;;;;;;;10.40;8.00;;;;;;;;;;5083777;28;20051;-63
2024/01/12 04:42:47;;;;;;;8.95;7.88;;;;;;;;;;5083919;28;20080;-62
2024/01/12 04:45:13;;;;;;;9.38;8.18;;;;;;;;;;5081733;28;20035;-62
2024/01/12 04:47:40;;;;;;;13.25;8.75;;;;;;;;;;5081184;28;20050;-62
2024/01/12 04:50:06;;;;;;;9.05;8.07;;;;;;;;;;5099438;28;20016;-61
2024/01/12 04:52:33;;;;;;;10.60;7.85;;;;;;;;;;5091402;28;20051;-62
2024/01/12 04:54:59;;;;;;;8.85;7.93;;;;;;;;;;5083801;28;20075;-61
2024/01/12 04:57:26;;;;;;;9.20;8.23;;;;;;;;;;5083698;28;20025;-61
2024/01/12 04:59:53;;;;;;;9.77;8.65;;;;;;;;;;5090027;28;20319;-62
2024/01/12 05:02:19;;;;;;;9.75;8.05;;;;;;;;;;5101753;28;20034;-62
2024/01/12 05:04:46;;;;;;;12.98;8.68;;;;;;;;;;5084228;28;20025;-63
2024/01/12 05:07:13;;;;;;;8.70;7.90;;;;;;;;;;5073908;28;20036;-65
2024/01/12 05:09:40;;;;;;;12.05;8.40;;;;;;;;;;5077154;28;20012;-64
2024/01/12 05:12:06;;;;;;;9.13;8.23;;;;;;;;;;5077509;28;20025;-64
2024/01/12 05:14:33;;;;;;;9.15;8.25;;;;;;;;;;5078939;28;20020;-63
2024/01/12 05:17:00;;;;;;;10.95;8.52;;;;;;;;;;5072453;28;20021;-62
2024/01/12 05:19:26;;;;;;;10.20;8.40;;;;;;;;;;5079574;28;20070;-63
2024/01/12 05:21:53;;;;;;;10.73;8.48;;;;;;;;;;5079947;28;20364;-63
2024/01/12 05:24:19;;;;;;;10.00;7.97;;;;;;;;;;5081623;28;20366;-60
2024/01/12 05:26:46;;;;;;;10.75;8.43;;;;;;;;;;5088989;28;20020;-61
2024/01/12 05:29:14;;;;;;;12.77;8.63;;;;;;;;;;5077010;28;20013;-61
2024/01/12 05:31:44;;;;;;;10.57;8.38;;;;;;;;;;5076212;28;20045;-64
2024/01/12 05:34:11;;;;;;;8.75;7.82;;;;;;;;;;5076908;28;20209;-62
2024/01/12 05:36:37;;;;;;;11.68;8.13;;;;;;;;;;5080541;28;20033;-62
2024/01/12 05:39:05;;;;;;;9.57;8.63;;;;;;;;;;5075761;28;20049;-61
2024/01/12 05:41:32;;;;;;;9.25;8.35;;;;;;;;;;5076983;28;20040;-61
2024/01/12 05:43:58;;;;;;;9.68;8.75;;;;;;;;;;5077612;28;20025;-58
2024/01/12 05:46:25;;;;;;;8.68;7.78;;;;;;;;;;5076185;28;20025;-61
2024/01/12 05:48:52;;;;;;;13.60;8.45;;;;;;;;;;5076414;28;20312;-60
2024/01/12 05:51:18;;;;;;;9.65;8.60;;;;;;;;;;5075622;28;20230;-62
2024/01/12 05:53:45;;;;;;;11.25;8.68;;;;;;;;;;5080099;28;20009;-62
2024/01/12 05:56:11;;;;;;;10.77;8.88;;;;;;;;;;5078462;28;20017;-63
2024/01/12 05:58:39;;;;;;;9.15;8.27;;;;;;;;;;5075394;28;20021;-60
2024/01/12 06:01:06;;;;;;;10.38;8.45;;;;;;;;;;5075879;28;20029;-62
2024/01/12 06:03:32;;;;;;;10.13;8.80;;;;;;;;;;5087592;28;20020;-64
2024/01/12 06:05:59;;;;;;;8.85;7.95;;;;;;;;;;5096956;28;20100;-64
2024/01/12 06:08:25;;;;;;;9.82;8.50;;;;;;;;;;5088357;28;20039;-65
2024/01/12 06:10:52;;;;;;;8.98;8.10;;;;;;;;;;5107066;28;20031;-63
2024/01/12 06:13:18;;;;;;;8.52;7.72;;;;;;;;;;5106871;28;20043;-60
2024/01/12 06:15:45;;;;;;;9.20;8.40;;;;;;;;;;5106192;28;20292;-58
2024/01/12 06:18:11;;;;;;;9.25;8.45;;;;;;;;;;5086542;28;20090;-62
2024/01/12 06:20:38;;;;;;;9.52;8.63;;;;;;;;;;5086434;28;20112;-62
2024/01/12 06:23:05;;;;;;;9.05;8.15;;;;;;;;;;5103688;28;20208;-63
2024/01/12 06:25:36;;;;;;;9.27;8.43;;;;;;;;;;5106670;28;20018;-65
2024/01/12 06:28:05;;;;;;;8.75;7.80;;;;;;;;;;5106586;28;20039;-63
2024/01/12 06:30:32;;;;;;;11.13;8.40;;;;;;;;;;5105714;28;20220;-62
2024/01/12 06:32:59;;;;;;;9.93;8.35;;;;;;;;;;5106569;28;20020;-61
2024/01/12 06:35:26;;;;;;;9.80;8.00;;;;;;;;;;5106455;28;20016;-60
2024/01/12 06:37:52;;;;;;;15.68;9.45;;;;;;;;;;5106425;28;20043;-63
2024/01/12 06:40:19;;;;;;;20.42;14.38;;;;;;;;;;5106349;28;20043;-63
2024/01/12 06:42:46;;;;;;;17.88;13.05;;;;;;;;;;5090324;28;20024;-64
2024/01/12 06:45:12;;;;;;;14.73;11.30;;;;;;;;;;5085871;28;20194;-64
2024/01/12 06:47:39;;;;;;;12.52;10.50;;;;;;;;;;5086558;28;20370;-64
2024/01/12 06:50:06;;;;;;;10.13;9.13;;;;;;;;;;5085910;28;20020;-65
2024/01/12 06:52:33;;;;;;;11.52;9.85;;;;;;;;;;5086189;28;20024;-64
2024/01/12 06:54:59;;;;;;;12.95;8.80;;;;;;;;;;5085868;28;20076;-64
2024/01/12 06:57:26;;;;;;;9.80;8.63;;;;;;;;;;5085705;28;20028;-63
2024/01/12 06:59:52;;;;;;;9.82;8.82;;;;;;;;;;5085621;28;20016;-62
2024/01/12 07:02:19;;;;;;;9.63;7.93;;;;;;;;;;5086138;28;20028;-63
2024/01/12 07:04:46;;;;;;;9.05;8.15;;;;;;;;;;5085663;28;20028;-63
2024/01/12 07:07:12;;;;;;;9.93;8.50;;;;;;;;;;5085840;28;20024;-61
2024/01/12 07:09:40;;;;;;;12.02;8.55;;;;;;;;;;5085413;28;20308;-62
2024/01/12 07:12:07;;;;;;;12.45;9.57;;;;;;;;;;5085789;28;20044;-63
2024/01/12 07:14:33;;;;;;;15.73;10.52;;;;;;;;;;5085331;28;20016;-61
2024/01/12 07:17:00;;;;;;;14.73;10.27;;;;;;;;;;5085808;28;20083;-62
2024/01/12 07:19:27;;;;;;;15.38;10.13;;;;;;;;;;5085354;28;20020;-61
2024/01/12 07:21:53;;;;;;;12.07;10.05;;;;;;;;;;5085484;28;20036;-62
2024/01/12 07:24:20;;;;;;;13.80;11.18;;;;;;;;;;5085430;28;20075;-61
2024/01/12 12:01:10;;;;;;;26.35;11.73;;;;;;;;;;5131489;27;20417;-59
2024/01/12 12:03:37;;;;;;;30.70;14.18;;;;;;;;;;5121681;28;20043;-60
2024/01/12 12:06:03;;;;;;;46.88;14.20;;;;;;;;;;5121569;28;20039;-62
2024/01/12 12:08:30;;;;;;;31.10;13.20;;;;;;;;;;5121577;28;20016;-55
2024/01/12 12:10:57;;;;;;;36.75;13.65;;;;;;;;;;5121659;28;20391;-60
2024/01/12 12:13:24;;;;;;;38.72;13.93;;;;;;;;;;5121530;28;20084;-53
2024/01/12 12:15:50;;;;;;;31.50;13.23;;;;;;;;;;5121296;28;20020;-57
2024/01/12 12:18:19;;;;;;;31.40;12.55;;;;;;;;;;5108407;28;20017;-55
2024/01/12 12:20:45;;;;;;;27.67;12.90;;;;;;;;;;5117092;28;20358;-59
2024/01/12 12:23:12;;;;;;;27.17;12.52;;;;;;;;;;5099525;28;20308;-60
2024/01/12 12:25:38;;;;;;;22.77;11.80;;;;;;;;;;5114756;28;20204;-63
2024/01/12 12:28:05;;;;;;;36.88;12.52;;;;;;;;;;5121292;28;20012;-56
2024/01/12 12:30:32;;;;;;;31.67;12.43;;;;;;;;;;5121600;28;20093;-59
2024/01/12 12:32:59;;;;;;;31.90;12.77;;;;;;;;;;5121362;28;20192;-58
2024/01/12 12:35:26;;;;;;;24.80;11.32;;;;;;;;;;5121062;28;20020;-63
2024/01/12 12:37:53;;;;;;;26.35;11.90;;;;;;;;;;5120476;28;20260;-55
2024/01/12 12:40:20;;;;;;;26.50;12.23;;;;;;;;;;5121148;28;20091;-61
2024/01/12 12:42:50;;;;;;;25.67;12.95;;;;;;;;;;5119165;28;20020;-60
2024/01/12 12:45:17;;;;;;;29.98;12.50;;;;;;;;;;5121606;28;20023;-61
2024/01/12 12:47:45;;;;;;;38.10;12.38;;;;;;;;;;5121134;28;20016;-59
2024/01/12 12:50:12;;;;;;;28.10;12.88;;;;;;;;;;5120645;28;20065;-63
2024/01/12 12:52:39;;;;;;;28.38;11.38;;;;;;;;;;5136098;28;20030;-61
2024/01/12 12:55:06;;;;;;;29.20;12.93;;;;;;;;;;5141537;28;20019;-55
2024/01/12 12:57:33;;;;;;;22.10;11.88;;;;;;;;;;5141653;28;20031;-55
2024/01/12 13:00:00;;;;;;;23.83;11.30;;;;;;;;;;5139016;28;20045;-53
2024/01/12 13:02:27;;;;;;;26.15;10.10;;;;;;;;;;5127898;28;20031;-57
2024/01/12 13:04:54;;;;;;;28.90;10.85;;;;;;;;;;5127567;28;20019;-54
2024/01/12 13:07:21;;;;;;;22.92;9.75;;;;;;;;;;5127643;28;20020;-57
2024/01/12 13:09:48;;;;;;;31.73;10.70;;;;;;;;;;5127674;28;20016;-60
2024/01/12 13:12:15;;;;;;;18.67;10.07;;;;;;;;;;5127641;28;20023;-57
2024/01/12 13:14:44;;;;;;;33.80;11.13;;;;;;;;;;5127387;28;20045;-62
2024/01/12 13:17:11;;;;;;;35.90;11.95;;;;;;;;;;5118948;28;20349;-60
2024/01/12 13:19:37;;;;;;;44.83;13.38;;;;;;;;;;5099995;28;20028;-57
2024/01/12 13:22:04;;;;;;;40.60;12.10;;;;;;;;;;5106922;28;20024;-61
2024/01/12 13:24:34;;;;;;;42.22;12.70;;;;;;;;;;5106925;28;20023;-61
2024/01/12 13:27:01;;;;;;;36.47;13.13;;;;;;;;;;5106627;28;20024;-61
2024/01/12 13:29:28;;;;;;;39.55;12.57;;;;;;;;;;5106223;28;20020;-57
2024/01/12 13:31:54;;;;;;;42.08;12.50;;;;;;;;;;5107138;28;20311;-55
2024/01/12 13:34:22;;;;;;;41.67;11.88;;;;;;;;;;5106525;28;20020;-56
2024/01/12 13:36:49;;;;;;;44.35;12.23;;;;;;;;;;5106881;28;20026;-59
2024/01/12 13:39:15;;;;;;;39.50;11.00;;;;;;;;;;5106473;28;20020;-62
2024/01/12 13:41:42;;;;;;;33.53;10.82;;;;;;;;;;5106617;28;20043;-60
2024/01/12 13:44:09;;;;;;;27.58;10.40;;;;;;;;;;5105655;28;20012;-55
2024/01/12 13:46:38;;;;;;;24.45;9.80;;;;;;;;;;5105802;28;20039;-56
2024/01/12 13:49:05;;;;;;;20.75;9.15;;;;;;;;;;5091392;28;20043;-55
2024/01/12 13:51:31;;;;;;;19.23;8.60;;;;;;;;;;5086086;28;20032;-55
2024/01/12 13:53:58;;;;;;;18.50;8.93;;;;;;;;;;5099952;28;20036;-59
2024/01/12 13:56:25;;;;;;;14.88;8.07;;;;;;;;;;5103624;28;20023;-57
2024/01/12 13:58:51;;;;;;;13.68;8.32;;;;;;;;;;5099600;28;20244;-61
2024/01/12 14:01:18;;;;;;;21.33;8.30;;;;;;;;;;5094475;28;20177;-61
2024/01/12 14:03:47;;;;;;;15.55;8.50;;;;;;;;;;5096855;28;20080;-58
2024/01/12 14:06:13;;;;;;;16.52;8.25;;;;;;;;;;5097177;28;20028;-59
2024/01/12 14:08:40;;;;;;;17.90;7.57;;;;;;;;;;5094410;28;20029;-60
2024/01/12 14:11:07;;;;;;;16.65;8.30;;;;;;;;;;5091885;28;20020;-56
2024/01/12 14:13:33;;;;;;;12.23;7.20;;;;;;;;;;5087271;28;20369;-56
2024/01/12 14:16:03;;;;;;;17.60;7.60;;;;;;;;;;5099069;28;20044;-59
2024/01/12 14:18:29;;;;;;;16.08;8.38;;;;;;;;;;5092857;28;20092;-62
2024/01/12 14:20:59;;;;;;;19.38;7.80;;;;;;;;;;5093150;28;20196;-60
2024/01/12 14:23:26;;;;;;;12.32;6.90;;;;;;;;;;5097934;28;20223;-58
2024/01/12 14:25:58;;;;;;;13.35;7.38;;;;;;;;;;5095185;28;20020;-59
2024/01/12 14:28:25;;;;;;;10.68;7.00;;;;;;;;;;5094019;28;20079;-60
2024/01/12 14:30:52;;;;;;;15.45;7.03;;;;;;;;;;5092998;28;20020;-58
2024/01/12 14:33:18;;;;;;;13.77;7.43;;;;;;;;;;5085477;28;20189;-56
2024/01/12 14:35:45;;;;;;;13.25;7.70;;;;;;;;;;5087979;28;20020;-55
2024/01/12 14:38:12;;;;;;;11.60;7.38;;;;;;;;;;5100037;28;20019;-53
2024/01/12 14:40:39;;;;;;;13.77;7.82;;;;;;;;;;5100620;28;20063;-53
2024/01/12 14:43:07;;;;;;;14.52;9.18;;;;;;;;;;5098439;28;20023;-54
2024/01/12 14:45:33;;;;;;;18.63;8.30;;;;;;;;;;5099163;28;20361;-58
2024/01/12 14:48:01;;;;;;;13.48;8.60;;;;;;;;;;5104514;28;20058;-64
2024/01/12 14:50:28;;;;;;;19.02;8.82;;;;;;;;;;5103704;28;20234;-53
2024/01/12 14:52:54;;;;;;;9.88;8.02;;;;;;;;;;5103363;28;20055;-48
2024/01/12 14:55:21;;;;;;;17.55;9.43;;;;;;;;;;5101805;28;20075;-51
2024/01/12 14:57:49;;;;;;;15.95;9.90;;;;;;;;;;5102243;28;20079;-58
2024/01/12 15:00:16;;;;;;;17.67;9.65;;;;;;;;;;5103953;28;20231;-51
2024/01/12 15:02:42;;;;;;;14.45;9.73;;;;;;;;;;5100032;28;20020;-53
2024/01/12 15:05:11;;;;;;;12.13;9.00;;;;;;;;;;5104098;28;20020;-60
2024/01/12 15:07:39;;;;;;;19.02;9.90;;;;;;;;;;5104174;28;20328;-60
2024/01/12 15:10:06;;;;;;;13.00;8.93;;;;;;;;;;5103002;28;20030;-60
2024/01/12 15:12:33;;;;;;;26.70;10.15;;;;;;;;;;5104501;28;20252;-56
2024/01/12 15:14:59;;;;;;;21.45;9.80;;;;;;;;;;5104637;28;20036;-56
2024/01/12 15:17:27;;;;;;;15.52;9.38;;;;;;;;;;5104690;28;20024;-53
2024/01/12 15:19:54;;;;;;;21.73;9.48;;;;;;;;;;5104357;28;20016;-56
2024/01/12 15:22:20;;;;;;;15.90;10.00;;;;;;;;;;5103525;28;20273;-56
2024/01/12 15:24:47;;;;;;;24.75;10.15;;;;;;;;;;5104039;28;20047;-59
2024/01/12 15:27:14;;;;;;;19.23;10.80;;;;;;;;;;5104731;28;20043;-60
2024/01/12 15:29:42;;;;;;;32.83;11.48;;;;;;;;;;5104045;28;20020;-59
2024/01/12 15:32:09;;;;;;;26.35;11.30;;;;;;;;;;5104807;28;20028;-56
2024/01/12 15:34:37;;;;;;;31.50;11.48;;;;;;;;;;5104519;28;20030;-56
2024/01/12 15:37:03;;;;;;;25.13;10.93;;;;;;;;;;5101511;28;20027;-54
2024/01/12 15:39:30;;;;;;;21.65;11.32;;;;;;;;;;5095096;28;20027;-54
2024/01/12 15:41:56;;;;;;;13.95;10.05;;;;;;;;;;5104822;28;20271;-57
2024/01/12 15:44:23;;;;;;;18.20;10.82;;;;;;;;;;5103961;28;20019;-53
2024/01/12 15:46:52;;;;;;;16.42;10.13;;;;;;;;;;5104516;28;20080;-55
2024/01/12 15:49:19;;;;;;;18.15;10.85;;;;;;;;;;5103984;28;20035;-59
2024/01/12 15:51:46;;;;;;;25.70;10.70;;;;;;;;;;5104267;28;20024;-52
2024/01/12 15:54:12;;;;;;;19.70;10.82;;;;;;;;;;5104153;28;20039;-62
2024/01/12 15:56:39;;;;;;;19.42;10.77;;;;;;;;;;5104527;28;20058;-55
2024/01/12 15:59:05;;;;;;;22.55;11.13;;;;;;;;;;5103745;28;20040;-56
2024/01/12 16:01:32;;;;;;;20.40;11.75;;;;;;;;;;5104247;28;20208;-54
2024/01/12 16:03:59;;;;;;;29.67;11.80;;;;;;;;;;5104033;28;20012;-58
2024/01/12 16:06:25;;;;;;;20.65;11.75;;;;;;;;;;5103692;28;20023;-59
2024/01/12 16:08:52;;;;;;;31.83;12.32;;;;;;;;;;5093867;28;20027;-54
2024/01/12 16:11:19;;;;;;;24.80;12.30;;;;;;;;;;5094846;28;20291;-53
2024/01/12 16:13:46;;;;;;;27.90;12.95;;;;;;;;;;5101827;28;20013;-54
2024/01/12 16:16:12;;;;;;;28.95;12.23;;;;;;;;;;5100297;28;20032;-54
2024/01/12 16:18:39;;;;;;;28.35;11.90;;;;;;;;;;5092551;28;20087;-55
2024/01/12 16:21:06;;;;;;;22.17;11.27;;;;;;;;;;5103874;28;20312;-58
2024/01/12 16:23:33;;;;;;;35.92;12.80;;;;;;;;;;5105009;28;20027;-56
2024/01/12 16:25:59;;;;;;;36.75;13.45;;;;;;;;;;5103926;28;20043;-55
2024/01/12 16:28:27;;;;;;;26.58;12.13;;;;;;;;;;5104045;28;20200;-52
2024/01/12 16:30:54;;;;;;;26.05;12.50;;;;;;;;;;5103972;28;20058;-56
2024/01/12 16:33:21;;;;;;;25.25;12.52;;;;;;;;;;5103738;28;20081;-56
2024/01/12 16:35:47;;;;;;;48.60;14.77;;;;;;;;;;5104232;28;20024;-57
2024/01/12 16:38:14;;;;;;;36.55;14.10;;;;;;;;;;5107266;28;20024;-57
2024/01/12 16:40:40;;;;;;;31.27;12.82;;;;;;;;;;5104501;28;20020;-55
2024/01/12 16:43:07;;;;;;;35.13;13.13;;;;;;;;;;5107758;28;20322;-53
2024/01/12 16:45:33;;;;;;;39.38;13.55;;;;;;;;;;5107694;28;20373;-53
2024/01/12 16:48:00;;;;;;;40.47;13.25;;;;;;;;;;5102766;28;20212;-53
2024/01/12 16:50:27;;;;;;;35.60;12.60;;;;;;;;;;5105625;28;20044;-55
2024/01/12 16:52:53;;;;;;;30.20;12.38;;;;;;;;;;5107127;28;20036;-60
2024/01/12 16:55:20;;;;;;;27.52;12.02;;;;;;;;;;5107348;28;20020;-59
2024/01/12 16:57:46;;;;;;;50.17;13.57;;;;;;;;;;5107472;28;20092;-54
2024/01/12 17:00:14;;;;;;;36.78;11.85;;;;;;;;;;5106892;28;20060;-58
2024/01/12 17:02:41;;;;;;;37.85;12.10;;;;;;;;;;5107031;28;20092;-59
2024/01/12 17:05:10;;;;;;;33.38;11.98;;;;;;;;;;5106982;28;20076;-53
2024/01/12 17:07:37;;;;;;;31.58;12.00;;;;;;;;;;5106969;28;20043;-54
2024/01/12 17:10:04;;;;;;;26.48;11.43;;;;;;;;;;5106898;28;20061;-54
2024/01/12 17:12:31;;;;;;;27.70;11.85;;;;;;;;;;5100044;28;21787;-59
2024/01/12 17:14:58;;;;;;;20.75;10.88;;;;;;;;;;5091978;28;20113;-54
2024/01/12 17:17:24;;;;;;;19.10;10.85;;;;;;;;;;5086590;28;20083;-62
2024/01/12 17:19:51;;;;;;;24.15;11.65;;;;;;;;;;5086531;28;20020;-59
2024/01/12 17:22:17;;;;;;;22.35;11.55;;;;;;;;;;5088665;28;20008;-57
2024/01/12 17:24:44;;;;;;;17.58;11.32;;;;;;;;;;5095332;28;20201;-58
2024/01/12 17:27:11;;;;;;;24.02;11.55;;;;;;;;;;5086226;28;20079;-58
2024/01/12 17:29:39;;;;;;;21.10;11.70;;;;;;;;;;5100853;28;20094;-57
2024/01/12 17:32:06;;;;;;;24.05;11.65;;;;;;;;;;5106648;28;20263;-61
2024/01/12 17:34:33;;;;;;;20.02;11.95;;;;;;;;;;5106883;28;20028;-60
2024/01/12 17:37:00;;;;;;;22.33;11.38;;;;;;;;;;5105462;28;20039;-61
2024/01/12 17:39:28;;;;;;;18.20;12.00;;;;;;;;;;5105701;28;20024;-63
2024/01/12 17:41:55;;;;;;;17.48;11.38;;;;;;;;;;5105559;28;20020;-63
2024/01/12 17:44:21;;;;;;;17.45;11.75;;;;;;;;;;5105095;28;20122;-62
2024/01/12 17:46:48;;;;;;;17.25;11.52;;;;;;;;;;5105961;28;20035;-62
2024/01/12 17:49:15;;;;;;;22.05;10.88;;;;;;;;;;5106355;28;20011;-62
2024/01/12 17:51:42;;;;;;;20.55;11.85;;;;;;;;;;5105846;28;20069;-62
2024/01/12 17:54:10;;;;;;;21.27;11.57;;;;;;;;;;5105876;28;20020;-57
2024/01/12 17:56:37;;;;;;;22.50;12.32;;;;;;;;;;5105800;28;20232;-59
2024/01/12 17:59:04;;;;;;;20.15;11.10;;;;;;;;;;5105390;28;20032;-59
2024/01/12 18:01:30;;;;;;;17.05;10.82;;;;;;;;;;5106181;28;20035;-59
2024/01/12 18:03:57;;;;;;;15.82;10.98;;;;;;;;;;5105758;28;20076;-64
2024/01/12 18:06:23;;;;;;;17.25;11.05;;;;;;;;;;5105519;28;20030;-57
2024/01/12 18:08:50;;;;;;;21.30;11.05;;;;;;;;;;5105647;28;20028;-61
2024/01/12 18:11:20;;;;;;;19.77;11.30;;;;;;;;;;5106175;28;20023;-58
2024/01/12 18:13:49;;;;;;;19.90;11.73;;;;;;;;;;5105441;28;20087;-58
2024/01/12 18:16:16;;;;;;;28.92;11.85;;;;;;;;;;5105811;28;20028;-57
2024/01/12 18:18:42;;;;;;;26.25;11.95;;;;;;;;;;5105484;28;20073;-58
2024/01/12 18:21:09;;;;;;;27.80;11.85;;;;;;;;;;5105730;28;20203;-59
2024/01/12 18:23:35;;;;;;;27.52;11.75;;;;;;;;;;5105708;28;20275;-59
2024/01/12 18:26:07;;;;;;;40.85;12.48;;;;;;;;;;5105834;28;20207;-59
2024/01/12 18:28:34;;;;;;;28.13;11.25;;;;;;;;;;5105737;28;20020;-58
2024/01/12 18:31:00;;;;;;;39.33;12.00;;;;;;;;;;5105695;28;20049;-58
2024/01/12 18:33:27;;;;;;;25.58;11.40;;;;;;;;;;5105409;28;20024;-59
2024/01/12 18:35:54;;;;;;;30.15;11.05;;;;;;;;;;5105636;28;20361;-58
2024/01/12 18:38:20;;;;;;;22.17;10.05;;;;;;;;;;5105183;28;20215;-60
2024/01/12 18:40:48;;;;;;;21.52;10.68;;;;;;;;;;5105352;28;20024;-58
2024/01/12 18:43:15;;;;;;;24.80;10.60;;;;;;;;;;5104887;28;20298;-59
2024/01/12 18:45:41;;;;;;;27.23;10.63;;;;;;;;;;5105347;28;20083;-57
2024/01/12 18:48:08;;;;;;;31.00;10.77;;;;;;;;;;5105027;28;20026;-58
2024/01/12 18:50:34;;;;;;;22.60;10.23;;;;;;;;;;5104621;28;20087;-65
2024/01/12 18:53:01;;;;;;;21.42;9.73;;;;;;;;;;5104934;28;20323;-58
2024/01/12 18:55:28;;;;;;;21.88;9.95;;;;;;;;;;5105386;28;20249;-58
2024/01/12 18:57:54;;;;;;;23.55;10.07;;;;;;;;;;5104373;28;20047;-57